createdAt,value
2023-04-28T00:00:54.126Z,993.55
2023-04-28T00:01:54.118Z,993.56
2023-04-28T00:02:54.278Z,993.59
2023-04-28T00:03:54.201Z,993.49
2023-04-28T00:04:54.297Z,993.48
2023-04-28T00:05:54.230Z,993.53
2023-04-28T00:06:54.076Z,993.48
2023-04-28T00:07:54.042Z,993.47
2023-04-28T00:08:54.030Z,993.45
2023-04-28T00:09:54.023Z,993.41
2023-04-28T00:10:54.001Z,993.47
2023-04-28T00:11:53.989Z,993.39
2023-04-28T00:12:53.977Z,993.35
2023-04-28T00:13:53.960Z,993.32
2023-04-28T00:14:53.972Z,993.36
2023-04-28T00:15:54.002Z,993.34
2023-04-28T00:16:54.038Z,993.34
2023-04-28T00:17:53.989Z,993.31
2023-04-28T00:18:53.893Z,993.38
2023-04-28T00:19:53.885Z,993.39
2023-04-28T00:20:53.876Z,993.37
2023-04-28T00:21:53.854Z,993.35
2023-04-28T00:22:53.866Z,993.37
2023-04-28T00:23:53.830Z,993.29
2023-04-28T00:24:53.815Z,993.36
2023-04-28T00:25:53.804Z,993.30
2023-04-28T00:26:53.789Z,993.32
2023-04-28T00:27:53.776Z,993.30
2023-04-28T00:28:53.759Z,993.25
2023-04-28T00:29:53.747Z,993.22
2023-04-28T00:30:53.734Z,993.26
2023-04-28T00:31:53.735Z,993.25
2023-04-28T00:32:53.778Z,993.20
2023-04-28T00:33:53.700Z,993.20
2023-04-28T00:34:53.695Z,993.21
2023-04-28T00:35:53.676Z,993.16
2023-04-28T00:36:53.661Z,993.17
2023-04-28T00:37:53.643Z,993.20
2023-04-28T00:38:53.664Z,993.19
2023-04-28T00:39:53.621Z,993.17
2023-04-28T00:40:53.621Z,993.17
2023-04-28T00:41:53.601Z,993.17
2023-04-28T00:42:53.598Z,993.10
2023-04-28T00:43:53.571Z,993.09
2023-04-28T00:44:53.550Z,993.03
2023-04-28T00:45:53.658Z,993.05
2023-04-28T00:46:53.531Z,993.04
2023-04-28T00:47:53.602Z,993.02
2023-04-28T00:48:53.502Z,993.03
2023-04-28T00:49:53.484Z,993.05
2023-04-28T00:50:53.478Z,992.97
2023-04-28T00:51:53.458Z,992.98
2023-04-28T00:52:53.446Z,992.99
2023-04-28T00:53:53.432Z,992.92
2023-04-28T00:54:53.445Z,992.96
2023-04-28T00:55:53.413Z,992.89
2023-04-28T00:56:53.386Z,992.91
2023-04-28T00:57:53.392Z,992.91
2023-04-28T00:58:53.371Z,992.88
2023-04-28T00:59:53.355Z,992.93
2023-04-28T01:00:53.391Z,992.94
2023-04-28T01:01:53.338Z,992.90
2023-04-28T01:02:53.557Z,992.88
2023-04-28T01:03:53.424Z,992.85
2023-04-28T01:04:53.283Z,992.85
2023-04-28T01:06:53.257Z,992.73
2023-04-28T01:07:53.243Z,992.76
2023-04-28T01:08:53.238Z,992.72
2023-04-28T01:09:53.218Z,992.77
2023-04-28T01:10:53.233Z,992.71
2023-04-28T01:11:53.194Z,992.78
2023-04-28T01:12:53.178Z,992.75
2023-04-28T01:13:53.166Z,992.67
2023-04-28T01:14:53.168Z,992.70
2023-04-28T01:15:53.136Z,992.71
2023-04-28T01:16:53.165Z,992.73
2023-04-28T01:17:53.148Z,992.75
2023-04-28T01:18:53.096Z,992.75
2023-04-28T01:19:53.102Z,992.76
2023-04-28T01:20:53.071Z,992.75
2023-04-28T01:21:53.061Z,992.74
2023-04-28T01:22:53.047Z,992.74
2023-04-28T01:23:53.031Z,992.71
2023-04-28T01:24:53.023Z,992.74
2023-04-28T01:25:53.005Z,992.76
2023-04-28T01:26:53.013Z,992.74
2023-04-28T01:27:52.973Z,992.70
2023-04-28T01:28:52.964Z,992.70
2023-04-28T01:29:52.957Z,992.69
2023-04-28T01:30:52.945Z,992.65
2023-04-28T01:31:53.055Z,992.64
2023-04-28T01:32:52.996Z,992.59
2023-04-28T01:33:52.899Z,992.60
2023-04-28T01:34:52.888Z,992.59
2023-04-28T01:35:52.869Z,992.56
2023-04-28T01:36:52.856Z,992.53
2023-04-28T01:37:52.842Z,992.53
2023-04-28T01:38:52.829Z,992.53
2023-04-28T01:39:52.820Z,992.51
2023-04-28T01:40:52.803Z,992.48
2023-04-28T01:41:52.798Z,992.47
2023-04-28T01:42:52.832Z,992.49
2023-04-28T01:43:52.763Z,992.48
2023-04-28T01:44:52.755Z,992.52
2023-04-28T01:45:52.770Z,992.51
2023-04-28T01:46:52.725Z,992.50
2023-04-28T01:47:52.776Z,992.44
2023-04-28T01:48:52.702Z,992.39
2023-04-28T01:49:52.690Z,992.34
2023-04-28T01:50:52.679Z,992.40
2023-04-28T01:51:52.661Z,992.44
2023-04-28T01:52:52.662Z,992.48
2023-04-28T01:53:52.639Z,992.49
2023-04-28T01:54:52.637Z,992.47
2023-04-28T01:55:52.611Z,992.51
2023-04-28T01:56:52.599Z,992.46
2023-04-28T01:57:52.584Z,992.47
2023-04-28T01:58:52.599Z,992.51
2023-04-28T01:59:52.558Z,992.50
2023-04-28T02:00:52.552Z,992.45
2023-04-28T02:01:52.560Z,992.44
2023-04-28T02:02:52.577Z,992.48
2023-04-28T02:03:52.826Z,992.40
2023-04-28T02:04:52.752Z,992.49
2023-04-28T02:05:52.490Z,992.44
2023-04-28T02:06:52.475Z,992.50
2023-04-28T02:07:52.459Z,992.45
2023-04-28T02:08:52.444Z,992.50
2023-04-28T02:09:52.437Z,992.50
2023-04-28T02:10:52.417Z,992.47
2023-04-28T02:11:52.404Z,992.48
2023-04-28T02:12:52.400Z,992.46
2023-04-28T02:13:52.395Z,992.46
2023-04-28T02:14:52.390Z,992.45
2023-04-28T02:15:52.399Z,992.45
2023-04-28T02:16:52.342Z,992.42
2023-04-28T02:17:52.444Z,992.38
2023-04-28T02:18:52.322Z,992.30
2023-04-28T02:19:52.301Z,992.30
2023-04-28T02:20:52.290Z,992.32
2023-04-28T02:21:52.307Z,992.31
2023-04-28T02:22:52.269Z,992.31
2023-04-28T02:23:52.252Z,992.35
2023-04-28T02:24:52.244Z,992.35
2023-04-28T02:25:52.225Z,992.35
2023-04-28T02:26:52.216Z,992.31
2023-04-28T02:27:52.201Z,992.37
2023-04-28T02:28:52.184Z,992.37
2023-04-28T02:29:52.169Z,992.39
2023-04-28T02:30:52.209Z,992.36
2023-04-28T02:31:52.177Z,992.33
2023-04-28T02:32:52.153Z,992.34
2023-04-28T02:33:52.118Z,992.28
2023-04-28T02:34:52.106Z,992.25
2023-04-28T02:35:52.100Z,992.25
2023-04-28T02:36:52.080Z,992.19
2023-04-28T02:37:52.066Z,992.17
2023-04-28T02:38:52.083Z,992.14
2023-04-28T02:39:52.036Z,992.11
2023-04-28T02:40:52.033Z,992.11
2023-04-28T02:41:52.012Z,992.06
2023-04-28T02:42:52.006Z,992.08
2023-04-28T02:43:51.994Z,992.06
2023-04-28T02:44:51.990Z,992.10
2023-04-28T02:45:51.964Z,992.14
2023-04-28T02:46:52.019Z,992.15
2023-04-28T02:47:51.967Z,992.14
2023-04-28T02:48:51.932Z,992.14
2023-04-28T02:49:51.908Z,992.16
2023-04-28T02:50:51.906Z,992.09
2023-04-28T02:51:51.887Z,992.06
2023-04-28T02:52:51.878Z,992.03
2023-04-28T02:53:51.870Z,992.01
2023-04-28T02:54:51.852Z,992.02
2023-04-28T02:55:51.837Z,991.94
2023-04-28T02:56:51.827Z,991.95
2023-04-28T02:57:51.815Z,991.92
2023-04-28T02:58:51.803Z,991.92
2023-04-28T02:59:51.787Z,991.97
2023-04-28T03:00:51.798Z,992.00
2023-04-28T03:01:51.763Z,991.92
2023-04-28T03:02:51.863Z,991.96
2023-04-28T03:03:51.911Z,991.93
2023-04-28T03:04:51.765Z,991.98
2023-04-28T03:05:51.715Z,991.97
2023-04-28T03:06:51.704Z,991.96
2023-04-28T03:07:51.695Z,992.03
2023-04-28T03:08:51.677Z,992.05
2023-04-28T03:09:51.659Z,992.02
2023-04-28T03:10:51.653Z,992.07
2023-04-28T03:11:51.638Z,992.06
2023-04-28T03:12:51.624Z,992.03
2023-04-28T03:13:51.611Z,992.05
2023-04-28T03:14:51.600Z,992.05
2023-04-28T03:15:51.597Z,992.04
2023-04-28T03:16:51.612Z,992.11
2023-04-28T03:17:51.627Z,992.06
2023-04-28T03:18:51.574Z,992.06
2023-04-28T03:19:51.544Z,992.00
2023-04-28T03:20:51.535Z,991.99
2023-04-28T03:21:51.510Z,992.01
2023-04-28T03:22:51.495Z,991.97
2023-04-28T03:23:51.499Z,991.93
2023-04-28T03:24:51.481Z,991.96
2023-04-28T03:25:51.483Z,991.92
2023-04-28T03:26:51.449Z,991.87
2023-04-28T03:27:51.436Z,991.86
2023-04-28T03:28:51.422Z,991.82
2023-04-28T03:29:51.408Z,991.89
2023-04-28T03:30:51.398Z,991.88
2023-04-28T03:31:51.433Z,991.84
2023-04-28T03:32:51.420Z,991.86
2023-04-28T03:33:51.358Z,991.82
2023-04-28T03:34:51.378Z,991.79
2023-04-28T03:35:51.331Z,991.81
2023-04-28T03:36:51.332Z,991.80
2023-04-28T03:37:51.323Z,991.83
2023-04-28T03:38:51.301Z,991.78
2023-04-28T03:39:51.284Z,991.80
2023-04-28T03:40:51.271Z,991.81
2023-04-28T03:41:51.266Z,991.81
2023-04-28T03:42:51.247Z,991.70
2023-04-28T03:43:51.239Z,991.66
2023-04-28T03:44:51.221Z,991.71
2023-04-28T03:45:51.244Z,991.73
2023-04-28T03:46:51.198Z,991.76
2023-04-28T03:47:51.216Z,991.72
2023-04-28T03:48:51.175Z,991.73
2023-04-28T03:49:51.156Z,991.76
2023-04-28T03:50:51.167Z,991.74
2023-04-28T03:51:51.131Z,991.68
2023-04-28T03:52:51.124Z,991.70
2023-04-28T03:53:51.114Z,991.68
2023-04-28T03:54:51.098Z,991.68
2023-04-28T03:55:51.081Z,991.64
2023-04-28T03:56:51.070Z,991.63
2023-04-28T03:57:51.057Z,991.61
2023-04-28T03:58:51.043Z,991.61
2023-04-28T03:59:51.029Z,991.65
2023-04-28T04:00:51.021Z,991.59
2023-04-28T04:01:51.011Z,991.57
2023-04-28T04:02:51.208Z,991.50
2023-04-28T04:03:51.311Z,991.46
2023-04-28T04:04:51.352Z,991.50
2023-04-28T04:05:51.066Z,991.52
2023-04-28T04:06:50.969Z,991.51
2023-04-28T04:07:50.940Z,991.54
2023-04-28T04:08:50.923Z,991.57
2023-04-28T04:09:50.913Z,991.52
2023-04-28T04:10:50.899Z,991.61
2023-04-28T04:11:50.885Z,991.62
2023-04-28T04:12:50.870Z,991.62
2023-04-28T04:13:50.857Z,991.61
2023-04-28T04:14:50.846Z,991.62
2023-04-28T04:15:50.923Z,991.61
2023-04-28T04:16:50.816Z,991.58
2023-04-28T04:17:50.828Z,991.62
2023-04-28T04:18:50.795Z,991.62
2023-04-28T04:19:50.782Z,991.55
2023-04-28T04:20:50.773Z,991.57
2023-04-28T04:21:50.756Z,991.57
2023-04-28T04:22:50.764Z,991.58
2023-04-28T04:23:50.732Z,991.56
2023-04-28T04:24:50.721Z,991.56
2023-04-28T04:25:50.701Z,991.53
2023-04-28T04:26:50.710Z,991.50
2023-04-28T04:27:50.677Z,991.49
2023-04-28T04:28:50.662Z,991.49
2023-04-28T04:29:50.648Z,991.56
2023-04-28T04:30:50.660Z,991.51
2023-04-28T04:31:50.623Z,991.52
2023-04-28T04:32:50.666Z,991.55
2023-04-28T04:33:50.609Z,991.58
2023-04-28T04:34:50.587Z,991.57
2023-04-28T04:35:50.571Z,991.56
2023-04-28T04:36:50.573Z,991.60
2023-04-28T04:37:50.548Z,991.62
2023-04-28T04:38:52.620Z,991.57
2023-04-28T04:39:50.521Z,991.56
2023-04-28T04:40:50.516Z,991.53
2023-04-28T04:41:50.494Z,991.48
2023-04-28T04:42:50.484Z,991.48
2023-04-28T04:43:50.474Z,991.47
2023-04-28T04:44:50.456Z,991.46
2023-04-28T04:45:50.443Z,991.42
2023-04-28T04:46:50.452Z,991.46
2023-04-28T04:47:50.459Z,991.49
2023-04-28T04:48:50.409Z,991.44
2023-04-28T04:49:50.408Z,991.45
2023-04-28T04:50:50.385Z,991.48
2023-04-28T04:51:50.376Z,991.50
2023-04-28T04:52:50.353Z,991.50
2023-04-28T04:53:50.352Z,991.54
2023-04-28T04:54:50.351Z,991.47
2023-04-28T04:55:50.313Z,991.48
2023-04-28T04:56:50.303Z,991.51
2023-04-28T04:57:50.284Z,991.46
2023-04-28T04:58:50.276Z,991.46
2023-04-28T04:59:50.260Z,991.40
2023-04-28T05:00:50.253Z,991.40
2023-04-28T05:01:50.307Z,991.42
2023-04-28T05:02:50.405Z,991.45
2023-04-28T05:03:50.426Z,991.46
2023-04-28T05:04:50.527Z,991.43
2023-04-28T05:05:50.187Z,991.56
2023-04-28T05:07:50.164Z,991.56
2023-04-28T05:08:50.157Z,991.57
2023-04-28T05:09:50.142Z,991.52
2023-04-28T05:10:50.175Z,991.40
2023-04-28T05:11:50.113Z,991.40
2023-04-28T05:12:50.096Z,991.35
2023-04-28T05:13:50.087Z,991.36
2023-04-28T05:14:50.071Z,991.32
2023-04-28T05:15:50.055Z,991.41
2023-04-28T05:16:50.220Z,991.37
2023-04-28T05:17:50.094Z,991.36
2023-04-28T05:18:50.022Z,991.37
2023-04-28T05:19:50.008Z,991.38
2023-04-28T05:20:50.028Z,991.39
2023-04-28T05:21:49.980Z,991.44
2023-04-28T05:22:49.973Z,991.48
2023-04-28T05:23:49.959Z,991.55
2023-04-28T05:24:49.945Z,991.60
2023-04-28T05:25:49.935Z,991.59
2023-04-28T05:26:49.945Z,991.58
2023-04-28T05:27:49.908Z,991.58
2023-04-28T05:28:49.893Z,991.52
2023-04-28T05:29:49.882Z,991.53
2023-04-28T05:30:49.863Z,991.54
2023-04-28T05:31:49.915Z,991.56
2023-04-28T05:32:49.887Z,991.55
2023-04-28T05:33:49.833Z,991.59
2023-04-28T05:34:49.816Z,991.61
2023-04-28T05:35:49.817Z,991.59
2023-04-28T05:36:49.794Z,991.59
2023-04-28T05:37:49.784Z,991.64
2023-04-28T05:38:49.776Z,991.55
2023-04-28T05:39:49.752Z,991.60
2023-04-28T05:40:49.739Z,991.62
2023-04-28T05:41:49.730Z,991.64
2023-04-28T05:42:49.732Z,991.60
2023-04-28T05:43:49.700Z,991.64
2023-04-28T05:44:49.692Z,991.62
2023-04-28T05:45:49.770Z,991.68
2023-04-28T05:46:49.728Z,991.65
2023-04-28T05:47:49.765Z,991.66
2023-04-28T05:48:49.628Z,991.68
2023-04-28T05:49:49.631Z,991.73
2023-04-28T05:50:49.609Z,991.70
2023-04-28T05:51:49.606Z,991.73
2023-04-28T05:52:49.579Z,991.73
2023-04-28T05:53:49.583Z,991.80
2023-04-28T05:54:49.558Z,991.80
2023-04-28T05:55:49.547Z,991.85
2023-04-28T05:56:49.531Z,991.84
2023-04-28T05:57:53.458Z,991.84
2023-04-28T05:58:49.525Z,991.82
2023-04-28T05:59:49.499Z,991.88
2023-04-28T06:00:49.482Z,991.79
2023-04-28T06:01:49.471Z,991.79
2023-04-28T06:02:49.716Z,991.79
2023-04-28T06:03:49.756Z,991.80
2023-04-28T06:04:49.755Z,991.73
2023-04-28T06:05:49.464Z,991.69
2023-04-28T06:06:49.413Z,991.58
2023-04-28T06:07:50.324Z,991.52
2023-04-28T06:08:49.390Z,991.57
2023-04-28T06:09:49.369Z,991.49
2023-04-28T06:10:49.359Z,991.58
2023-04-28T06:11:49.344Z,991.55
2023-04-28T06:12:49.329Z,991.60
2023-04-28T06:13:49.318Z,991.65
2023-04-28T06:14:49.329Z,991.67
2023-04-28T06:15:49.314Z,991.69
2023-04-28T06:16:49.286Z,991.66
2023-04-28T06:17:49.393Z,991.65
2023-04-28T06:18:49.872Z,991.64
2023-04-28T06:19:49.245Z,991.61
2023-04-28T06:20:49.236Z,991.62
2023-04-28T06:21:49.222Z,991.64
2023-04-28T06:22:49.203Z,991.57
2023-04-28T06:23:49.235Z,991.54
2023-04-28T06:24:49.178Z,991.52
2023-04-28T06:25:49.170Z,991.52
2023-04-28T06:26:49.154Z,991.43
2023-04-28T06:27:49.147Z,991.41
2023-04-28T06:28:49.130Z,991.39
2023-04-28T06:29:49.123Z,991.40
2023-04-28T06:30:49.124Z,991.40
2023-04-28T06:31:49.266Z,991.43
2023-04-28T06:32:49.133Z,991.40
2023-04-28T06:33:49.081Z,991.47
2023-04-28T06:34:49.050Z,991.53
2023-04-28T06:35:49.130Z,991.54
2023-04-28T06:36:49.069Z,991.53
2023-04-28T06:37:49.013Z,991.52
2023-04-28T06:38:49.004Z,991.57
2023-04-28T06:39:49.005Z,991.48
2023-04-28T06:40:48.987Z,991.46
2023-04-28T06:41:48.973Z,991.44
2023-04-28T06:42:48.952Z,991.41
2023-04-28T06:43:48.938Z,991.41
2023-04-28T06:44:48.929Z,991.41
2023-04-28T06:45:48.913Z,991.46
2023-04-28T06:46:48.969Z,991.53
2023-04-28T06:47:48.947Z,991.48
2023-04-28T06:48:48.878Z,991.40
2023-04-28T06:49:48.864Z,991.33
2023-04-28T06:50:48.849Z,991.29
2023-04-28T06:51:48.840Z,991.30
2023-04-28T06:52:48.827Z,991.29
2023-04-28T06:53:48.812Z,991.29
2023-04-28T06:54:48.800Z,991.32
2023-04-28T06:55:48.794Z,991.36
2023-04-28T06:56:48.776Z,991.31
2023-04-28T06:57:48.768Z,991.24
2023-04-28T06:58:48.748Z,991.16
2023-04-28T06:59:48.743Z,991.27
2023-04-28T07:00:48.798Z,991.19
2023-04-28T07:01:48.727Z,991.14
2023-04-28T07:02:48.806Z,991.13
2023-04-28T07:03:49.126Z,991.10
2023-04-28T07:04:48.667Z,991.08
2023-04-28T07:05:48.660Z,990.97
2023-04-28T07:06:48.644Z,990.99
2023-04-28T07:07:48.632Z,990.94
2023-04-28T07:08:48.619Z,990.89
2023-04-28T07:09:48.607Z,990.87
2023-04-28T07:10:48.589Z,990.88
2023-04-28T07:11:48.580Z,990.85
2023-04-28T07:12:48.566Z,990.79
2023-04-28T07:13:48.556Z,990.72
2023-04-28T07:14:48.552Z,990.65
2023-04-28T07:15:48.528Z,990.67
2023-04-28T07:16:48.775Z,990.72
2023-04-28T07:17:48.586Z,990.74
2023-04-28T07:18:48.534Z,990.74
2023-04-28T07:19:48.472Z,990.81
2023-04-28T07:20:48.520Z,990.88
2023-04-28T07:21:48.449Z,991.02
2023-04-28T07:22:48.434Z,991.08
2023-04-28T07:23:48.418Z,991.14
2023-04-28T07:24:48.406Z,991.18
2023-04-28T07:25:48.402Z,991.22
2023-04-28T07:26:48.382Z,991.24
2023-04-28T07:27:48.370Z,991.27
2023-04-28T07:28:48.354Z,991.27
2023-04-28T07:29:48.344Z,991.27
2023-04-28T07:30:48.334Z,991.38
2023-04-28T07:31:48.370Z,991.30
2023-04-28T07:32:48.329Z,991.30
2023-04-28T07:33:48.303Z,991.32
2023-04-28T07:34:48.297Z,991.35
2023-04-28T07:35:48.279Z,991.27
2023-04-28T07:36:48.248Z,991.32
2023-04-28T07:37:48.294Z,991.32
2023-04-28T07:38:48.228Z,991.36
2023-04-28T07:39:48.224Z,991.32
2023-04-28T07:40:48.198Z,991.29
2023-04-28T07:41:48.180Z,991.27
2023-04-28T07:42:48.166Z,991.24
2023-04-28T07:43:48.179Z,991.24
2023-04-28T07:44:48.139Z,991.22
2023-04-28T07:45:48.155Z,991.21
2023-04-28T07:46:49.026Z,991.16
2023-04-28T07:47:48.119Z,991.26
2023-04-28T07:48:48.092Z,991.30
2023-04-28T07:49:48.070Z,991.39
2023-04-28T07:50:48.087Z,991.35
2023-04-28T07:51:48.070Z,991.38
2023-04-28T07:52:48.038Z,991.35
2023-04-28T07:53:48.022Z,991.33
2023-04-28T07:54:48.005Z,991.37
2023-04-28T07:55:47.999Z,991.34
2023-04-28T07:56:47.986Z,991.39
2023-04-28T07:57:47.974Z,991.38
2023-04-28T07:58:47.953Z,991.44
2023-04-28T07:59:47.943Z,991.40
2023-04-28T08:00:47.934Z,991.37
2023-04-28T08:01:47.917Z,991.43
2023-04-28T08:02:48.086Z,991.34
2023-04-28T08:03:48.254Z,991.37
2023-04-28T08:04:48.028Z,991.34
2023-04-28T08:05:48.041Z,991.33
2023-04-28T08:06:47.918Z,991.37
2023-04-28T08:07:47.842Z,991.30
2023-04-28T08:08:47.823Z,991.32
2023-04-28T08:09:47.829Z,991.29
2023-04-28T08:10:47.799Z,991.29
2023-04-28T08:11:47.803Z,991.28
2023-04-28T08:12:47.782Z,991.30
2023-04-28T08:13:47.762Z,991.32
2023-04-28T08:14:47.746Z,991.35
2023-04-28T08:15:47.777Z,991.28
2023-04-28T08:16:47.728Z,991.31
2023-04-28T08:17:47.745Z,991.33
2023-04-28T08:18:47.778Z,991.32
2023-04-28T08:19:47.680Z,991.32
2023-04-28T08:20:47.676Z,991.34
2023-04-28T08:21:47.659Z,991.30
2023-04-28T08:22:47.666Z,991.29
2023-04-28T08:23:47.646Z,991.27
2023-04-28T08:24:47.616Z,991.36
2023-04-28T08:25:47.605Z,991.36
2023-04-28T08:26:47.589Z,991.35
2023-04-28T08:27:47.576Z,991.40
2023-04-28T08:28:47.562Z,991.32
2023-04-28T08:29:47.560Z,991.32
2023-04-28T08:30:47.533Z,991.39
2023-04-28T08:31:47.551Z,991.35
2023-04-28T08:32:47.517Z,991.38
2023-04-28T08:33:47.499Z,991.42
2023-04-28T08:34:47.482Z,991.39
2023-04-28T08:35:47.472Z,991.44
2023-04-28T08:36:47.457Z,991.42
2023-04-28T08:37:47.449Z,991.44
2023-04-28T08:38:47.460Z,991.46
2023-04-28T08:39:47.424Z,991.44
2023-04-28T08:40:47.405Z,991.43
2023-04-28T08:41:47.404Z,991.42
2023-04-28T08:42:47.412Z,991.44
2023-04-28T08:43:47.365Z,991.42
2023-04-28T08:44:47.354Z,991.45
2023-04-28T08:45:47.341Z,991.45
2023-04-28T08:46:47.408Z,991.46
2023-04-28T08:47:47.334Z,991.52
2023-04-28T08:48:47.316Z,991.53
2023-04-28T08:49:47.298Z,991.49
2023-04-28T08:50:47.277Z,991.59
2023-04-28T08:51:47.264Z,991.61
2023-04-28T08:52:47.256Z,991.53
2023-04-28T08:54:11.787Z,991.54
2023-04-28T08:54:49.252Z,991.54
2023-04-28T08:55:47.219Z,991.56
2023-04-28T08:56:47.204Z,991.50
2023-04-28T08:57:47.190Z,991.55
2023-04-28T08:58:47.185Z,991.56
2023-04-28T08:59:47.178Z,991.58
2023-04-28T09:00:47.144Z,991.67
2023-04-28T09:01:47.174Z,991.67
2023-04-28T09:02:47.233Z,991.62
2023-04-28T09:03:47.287Z,991.64
2023-04-28T09:04:47.270Z,991.67
2023-04-28T09:05:47.295Z,991.64
2023-04-28T09:06:47.201Z,991.63
2023-04-28T09:07:47.057Z,991.65
2023-04-28T09:08:47.057Z,991.64
2023-04-28T09:09:47.038Z,991.63
2023-04-28T09:10:47.115Z,991.51
2023-04-28T09:11:47.008Z,991.51
2023-04-28T09:12:46.996Z,991.49
2023-04-28T09:13:46.987Z,991.46
2023-04-28T09:14:46.968Z,991.44
2023-04-28T09:15:46.962Z,991.53
2023-04-28T09:16:46.989Z,991.46
2023-04-28T09:17:46.979Z,991.55
2023-04-28T09:18:46.914Z,991.57
2023-04-28T09:19:46.904Z,991.52
2023-04-28T09:20:46.890Z,991.43
2023-04-28T09:21:46.879Z,991.51
2023-04-28T09:22:46.920Z,991.45
2023-04-28T09:23:46.852Z,991.50
2023-04-28T09:24:46.843Z,991.49
2023-04-28T09:25:46.829Z,991.49
2023-04-28T09:26:46.836Z,991.52
2023-04-28T09:27:46.809Z,991.50
2023-04-28T09:28:46.788Z,991.46
2023-04-28T09:29:46.779Z,991.47
2023-04-28T09:30:46.762Z,991.39
2023-04-28T09:31:46.769Z,991.35
2023-04-28T09:32:46.794Z,991.40
2023-04-28T09:33:46.728Z,991.38
2023-04-28T09:34:46.714Z,991.38
2023-04-28T09:35:46.706Z,991.30
2023-04-28T09:36:46.691Z,991.25
2023-04-28T09:37:46.676Z,991.24
2023-04-28T09:38:46.662Z,991.32
2023-04-28T09:39:46.653Z,991.34
2023-04-28T09:40:46.642Z,991.38
2023-04-28T09:41:46.647Z,991.44
2023-04-28T09:42:46.669Z,991.46
2023-04-28T09:43:46.600Z,991.47
2023-04-28T09:44:46.584Z,991.40
2023-04-28T09:45:46.589Z,991.43
2023-04-28T09:46:46.608Z,991.40
2023-04-28T09:47:46.761Z,991.32
2023-04-28T09:48:46.537Z,991.27
2023-04-28T09:49:46.521Z,991.18
2023-04-28T09:50:46.511Z,991.14
2023-04-28T09:51:46.494Z,991.08
2023-04-28T09:52:46.486Z,991.20
2023-04-28T09:53:46.491Z,991.09
2023-04-28T09:54:46.461Z,991.07
2023-04-28T09:55:46.444Z,991.10
2023-04-28T09:56:46.436Z,991.05
2023-04-28T09:57:48.656Z,991.13
2023-04-28T09:58:46.435Z,991.17
2023-04-28T09:59:46.395Z,991.19
2023-04-28T10:00:46.383Z,991.18
2023-04-28T10:01:46.485Z,991.16
2023-04-28T10:02:46.576Z,991.14
2023-04-28T10:03:46.497Z,991.13
2023-04-28T10:04:46.455Z,991.04
2023-04-28T10:05:46.383Z,991.04
2023-04-28T10:06:46.309Z,991.08
2023-04-28T10:07:46.293Z,991.07
2023-04-28T10:08:46.284Z,991.01
2023-04-28T10:09:46.263Z,991.04
2023-04-28T10:10:46.250Z,991.06
2023-04-28T10:11:46.239Z,991.04
2023-04-28T10:12:46.230Z,991.01
2023-04-28T10:13:46.210Z,991.01
2023-04-28T10:14:46.225Z,991.01
2023-04-28T10:15:47.538Z,991.05
2023-04-28T10:16:46.174Z,991.02
2023-04-28T10:17:46.201Z,990.97
2023-04-28T10:18:46.149Z,991.04
2023-04-28T10:19:46.139Z,990.93
2023-04-28T10:20:46.125Z,990.94
2023-04-28T10:21:47.508Z,990.92
2023-04-28T10:22:46.100Z,990.91
2023-04-28T10:23:46.080Z,990.86
2023-04-28T10:24:46.084Z,990.70
2023-04-28T10:25:46.064Z,990.67
2023-04-28T10:26:46.048Z,990.64
2023-04-28T10:27:46.101Z,990.60
2023-04-28T10:28:46.029Z,990.70
2023-04-28T10:29:46.009Z,990.68
2023-04-28T10:30:46.021Z,990.76
2023-04-28T10:31:46.049Z,990.59
2023-04-28T10:32:45.995Z,990.54
2023-04-28T10:33:45.959Z,990.78
2023-04-28T10:34:45.952Z,990.87
2023-04-28T10:35:45.931Z,990.78
2023-04-28T10:36:45.919Z,990.79
2023-04-28T10:37:45.910Z,990.77
2023-04-28T10:38:45.899Z,990.80
2023-04-28T10:39:45.884Z,990.64
2023-04-28T10:40:45.875Z,990.66
2023-04-28T10:41:45.860Z,990.68
2023-04-28T10:42:45.859Z,990.62
2023-04-28T10:43:45.836Z,990.61
2023-04-28T10:44:45.832Z,990.66
2023-04-28T10:45:45.809Z,990.51
2023-04-28T10:46:45.968Z,990.50
2023-04-28T10:47:45.885Z,990.50
2023-04-28T10:48:45.789Z,990.45
2023-04-28T10:49:45.758Z,990.50
2023-04-28T10:50:45.755Z,990.53
2023-04-28T10:51:45.738Z,990.54
2023-04-28T10:52:45.731Z,990.49
2023-04-28T10:53:46.075Z,990.48
2023-04-28T10:54:45.699Z,990.45
2023-04-28T10:55:45.690Z,990.50
2023-04-28T10:56:45.683Z,990.51
2023-04-28T10:57:45.663Z,990.43
2023-04-28T10:58:45.653Z,990.43
2023-04-28T10:59:45.643Z,990.43
2023-04-28T11:00:45.674Z,990.42
2023-04-28T11:01:45.648Z,990.35
2023-04-28T11:02:45.762Z,990.38
2023-04-28T11:03:45.699Z,990.40
2023-04-28T11:04:45.804Z,990.44
2023-04-28T11:05:45.558Z,990.25
2023-04-28T11:06:45.561Z,990.22
2023-04-28T11:07:45.557Z,990.26
2023-04-28T11:08:45.523Z,990.19
2023-04-28T11:09:45.510Z,990.21
2023-04-28T11:10:45.500Z,990.17
2023-04-28T11:11:45.486Z,990.30
2023-04-28T11:12:45.492Z,990.30
2023-04-28T11:13:45.458Z,990.28
2023-04-28T11:14:45.452Z,990.25
2023-04-28T11:15:45.431Z,990.26
2023-04-28T11:16:45.517Z,990.25
2023-04-28T11:17:45.454Z,990.27
2023-04-28T11:18:45.420Z,990.18
2023-04-28T11:19:45.448Z,990.19
2023-04-28T11:20:45.370Z,990.16
2023-04-28T11:21:45.384Z,990.18
2023-04-28T11:22:45.428Z,990.17
2023-04-28T11:23:45.363Z,990.15
2023-04-28T11:24:45.329Z,990.12
2023-04-28T11:25:45.307Z,990.13
2023-04-28T11:26:45.315Z,990.09
2023-04-28T11:27:45.311Z,990.04
2023-04-28T11:28:45.319Z,990.07
2023-04-28T11:29:45.304Z,990.15
2023-04-28T11:30:45.294Z,990.07
2023-04-28T11:31:45.248Z,990.05
2023-04-28T11:32:45.247Z,990.02
2023-04-28T11:33:45.206Z,990.01
2023-04-28T11:34:45.224Z,990.05
2023-04-28T11:35:45.185Z,989.95
2023-04-28T11:36:45.182Z,990.01
2023-04-28T11:37:45.163Z,989.99
2023-04-28T11:38:45.147Z,990.02
2023-04-28T11:39:45.136Z,990.00
2023-04-28T11:40:45.124Z,989.97
2023-04-28T11:41:45.135Z,990.06
2023-04-28T11:42:45.101Z,989.99
2023-04-28T11:43:47.291Z,990.01
2023-04-28T11:44:45.088Z,990.04
2023-04-28T11:45:45.081Z,990.03
2023-04-28T11:46:45.054Z,989.99
2023-04-28T11:47:45.064Z,989.87
2023-04-28T11:48:45.128Z,989.92
2023-04-28T11:49:45.018Z,990.04
2023-04-28T11:50:45.025Z,989.86
2023-04-28T11:51:44.990Z,990.00
2023-04-28T11:52:44.979Z,989.95
2023-04-28T11:53:44.971Z,989.90
2023-04-28T11:54:44.964Z,989.88
2023-04-28T11:55:44.941Z,989.91
2023-04-28T11:56:44.939Z,989.96
2023-04-28T11:57:44.934Z,989.94
2023-04-28T11:58:44.907Z,989.91
2023-04-28T11:59:45.040Z,989.90
2023-04-28T12:00:44.887Z,989.95
2023-04-28T12:01:44.877Z,989.89
2023-04-28T12:02:45.195Z,989.70
2023-04-28T12:03:44.972Z,989.75
2023-04-28T12:04:44.835Z,989.85
2023-04-28T12:05:44.832Z,989.86
2023-04-28T12:06:44.827Z,989.79
2023-04-28T12:07:44.800Z,989.80
2023-04-28T12:08:44.790Z,989.55
2023-04-28T12:09:45.198Z,989.62
2023-04-28T12:10:44.760Z,989.55
2023-04-28T12:11:44.746Z,989.46
2023-04-28T12:12:51.772Z,989.57
2023-04-28T12:13:46.722Z,989.59
2023-04-28T12:14:44.718Z,989.55
2023-04-28T12:15:44.727Z,989.60
2023-04-28T12:16:44.682Z,989.59
2023-04-28T12:17:44.701Z,989.56
2023-04-28T12:18:44.662Z,989.60
2023-04-28T12:19:44.761Z,989.54
2023-04-28T12:20:44.639Z,989.61
2023-04-28T12:21:44.628Z,989.53
2023-04-28T12:22:44.645Z,989.44
2023-04-28T12:23:44.601Z,989.43
2023-04-28T12:24:44.588Z,989.50
2023-04-28T12:25:44.623Z,989.54
2023-04-28T12:26:44.561Z,989.60
2023-04-28T12:27:44.548Z,989.46
2023-04-28T12:28:44.549Z,989.62
2023-04-28T12:29:44.817Z,989.54
2023-04-28T12:30:44.586Z,989.49